createdAt,value
2019-04-10T00:01:19.445Z,2.97
2019-04-10T00:03:50.549Z,3.07
2019-04-10T00:06:21.721Z,2.67
2019-04-10T00:08:52.876Z,2.93
2019-04-10T00:11:24.830Z,2.67
2019-04-10T00:13:55.782Z,3.03
2019-04-10T00:16:27.822Z,3.12
2019-04-10T00:18:59.191Z,2.83
2019-04-10T00:21:31.334Z,2.92
2019-04-10T00:24:02.457Z,2.90
2019-04-10T00:26:34.060Z,2.77
2019-04-10T00:29:05.737Z,2.80
2019-04-10T00:31:36.649Z,3.10
2019-04-10T00:34:07.561Z,2.40
2019-04-10T00:36:39.414Z,2.50
2019-04-10T00:39:10.564Z,2.87
2019-04-10T00:41:41.559Z,3.10
2019-04-10T00:44:13.502Z,3.20
2019-04-10T00:46:44.455Z,2.90
2019-04-10T00:49:15.566Z,2.53
2019-04-10T00:51:47.781Z,2.77
2019-04-10T00:54:22.053Z,2.98
2019-04-10T00:56:53.374Z,3.03
2019-04-10T00:59:24.277Z,2.83
2019-04-10T01:01:56.210Z,2.83
2019-04-10T01:04:27.330Z,3.20
2019-04-10T01:06:58.229Z,2.20
2019-04-10T01:09:29.497Z,2.77
2019-04-10T01:12:01.808Z,2.93
2019-04-10T01:14:34.260Z,2.90
2019-04-10T01:17:06.224Z,3.10
2019-04-10T01:19:37.745Z,3.00
2019-04-10T01:22:09.026Z,2.87
2019-04-10T01:24:39.901Z,2.83
2019-04-10T01:27:11.780Z,3.10
2019-04-10T01:29:43.951Z,2.87
2019-04-10T01:32:15.424Z,2.83
2019-04-10T01:34:46.544Z,3.25
2019-04-10T01:37:18.758Z,2.87
2019-04-10T01:39:50.648Z,2.50
2019-04-10T01:42:22.792Z,2.80
2019-04-10T01:44:55.221Z,2.65
2019-04-10T01:47:26.911Z,2.67
2019-04-10T01:49:58.103Z,2.77
2019-04-10T01:52:31.197Z,3.00
2019-04-10T01:55:16.014Z,2.80
2019-04-10T01:57:35.323Z,2.90
2019-04-10T02:00:06.818Z,2.43
2019-04-10T02:02:45.451Z,2.27
2019-04-10T02:05:16.694Z,3.00
2019-04-10T02:07:59.334Z,2.98
2019-04-10T02:10:20.800Z,2.43
2019-04-10T02:12:52.636Z,3.00
2019-04-10T02:15:23.617Z,2.70
2019-04-10T02:17:55.101Z,2.70
2019-04-10T02:20:27.077Z,2.80
2019-04-10T02:22:58.465Z,2.80
2019-04-10T02:25:30.607Z,3.23
2019-04-10T02:28:02.701Z,2.83
2019-04-10T02:30:34.741Z,2.47
2019-04-10T02:33:08.407Z,2.67
2019-04-10T02:35:40.033Z,2.73
2019-04-10T02:38:34.157Z,2.43
2019-04-10T02:40:45.568Z,3.10
2019-04-10T02:43:16.775Z,2.73
2019-04-10T02:45:49.390Z,2.83
2019-04-10T02:48:20.300Z,3.45
2019-04-10T02:50:51.543Z,2.57
2019-04-10T02:53:23.317Z,3.20
2019-04-10T02:55:55.777Z,3.03
2019-04-10T02:58:26.761Z,2.40
2019-04-10T03:00:59.060Z,2.67
2019-04-10T03:03:30.765Z,2.47
2019-04-10T03:06:02.603Z,2.77
2019-04-10T03:08:44.547Z,2.97
2019-04-10T03:11:10.951Z,2.90
2019-04-10T03:13:39.621Z,2.50
2019-04-10T03:16:11.762Z,2.97
2019-04-10T03:18:43.194Z,3.17
2019-04-10T03:21:15.367Z,3.40
2019-04-10T03:23:46.145Z,2.80
2019-04-10T03:26:17.368Z,2.93
2019-04-10T03:28:49.305Z,3.30
2019-04-10T03:31:23.022Z,2.90
2019-04-10T03:34:16.924Z,3.13
2019-04-10T03:36:49.045Z,3.40
2019-04-10T03:39:21.619Z,3.27
2019-04-10T03:41:52.743Z,3.07
2019-04-10T03:44:24.911Z,3.20
2019-04-10T03:46:56.137Z,3.05
2019-04-10T03:49:27.639Z,3.37
2019-04-10T03:51:58.533Z,3.63
2019-04-10T03:54:30.221Z,3.33
2019-04-10T03:57:01.022Z,3.45
2019-04-10T03:59:32.670Z,3.83
2019-04-10T04:02:03.622Z,3.73
2019-04-10T04:04:34.553Z,3.30
2019-04-10T04:07:05.437Z,3.30
2019-04-10T04:09:37.733Z,3.30
2019-04-10T04:12:09.221Z,3.87
2019-04-10T04:14:40.840Z,3.50
2019-04-10T04:17:12.023Z,3.47
2019-04-10T04:19:43.160Z,3.60
2019-04-10T04:22:14.624Z,3.77
2019-04-10T04:24:46.174Z,3.20
2019-04-10T04:27:17.552Z,3.33
2019-04-10T04:29:49.890Z,3.50
2019-04-10T04:32:21.762Z,3.10
2019-04-10T04:34:52.868Z,3.20
2019-04-10T04:37:24.014Z,5.03
2019-04-10T04:39:56.295Z,4.40
2019-04-10T04:42:28.756Z,3.10
2019-04-10T04:45:00.775Z,1.50
2019-04-10T04:47:36.451Z,1.90
2019-04-10T04:50:07.756Z,1.63
2019-04-10T04:52:41.114Z,2.73
2019-04-10T04:55:12.326Z,2.83
2019-04-10T04:57:43.028Z,3.60
2019-04-10T05:00:15.167Z,4.07
2019-04-10T05:02:47.068Z,3.75
2019-04-10T05:05:19.850Z,2.33
2019-04-10T05:07:59.330Z,3.47
2019-04-10T05:10:25.132Z,2.37
2019-04-10T05:15:37.305Z,3.43
2019-04-10T05:18:08.215Z,2.60
2019-04-10T05:20:45.158Z,3.17
2019-04-10T05:23:12.425Z,4.47
2019-04-10T05:25:43.476Z,2.87
2019-04-10T05:28:15.219Z,3.80
2019-04-10T05:30:47.468Z,2.95
2019-04-10T05:33:18.954Z,3.70
2019-04-10T05:35:50.769Z,5.03
2019-04-10T05:38:22.590Z,3.40
2019-04-10T05:40:55.184Z,2.98
2019-04-10T05:43:28.167Z,4.15
2019-04-10T05:45:59.402Z,3.00
2019-04-10T05:48:31.531Z,3.60
2019-04-10T05:51:05.630Z,2.80
2019-04-10T05:53:35.083Z,3.63
2019-04-10T05:56:06.074Z,2.50
2019-04-10T05:58:37.199Z,3.13
2019-04-10T06:01:09.493Z,3.20
2019-04-10T06:03:40.823Z,2.95
2019-04-10T06:06:12.522Z,3.13
2019-04-10T06:08:44.701Z,2.43
2019-04-10T06:11:15.527Z,4.07
2019-04-10T06:13:46.665Z,3.60
2019-04-10T06:16:18.034Z,4.10
2019-04-10T06:18:48.948Z,2.67
2019-04-10T06:21:21.067Z,3.17
2019-04-10T06:23:52.213Z,2.23
2019-04-10T06:26:23.693Z,4.10
2019-04-10T06:28:55.271Z,2.13
2019-04-10T06:31:26.164Z,3.90
2019-04-10T06:33:58.310Z,4.20
2019-04-10T06:36:29.721Z,2.95
2019-04-10T06:39:00.582Z,3.87
2019-04-10T06:41:33.003Z,4.97
2019-04-10T06:44:03.838Z,4.37
2019-04-10T06:46:37.546Z,4.00
2019-04-10T06:49:09.157Z,4.27
2019-04-10T06:51:41.051Z,5.30
2019-04-10T06:54:12.927Z,5.27
2019-04-10T06:56:45.072Z,5.47
2019-04-10T06:59:16.638Z,9.13
2019-04-10T07:01:52.604Z,4.73
2019-04-10T07:04:24.046Z,5.17
2019-04-10T07:07:00.108Z,4.47
2019-04-10T07:09:27.052Z,4.05
2019-04-10T07:12:01.488Z,4.30
2019-04-10T07:14:35.475Z,3.90
2019-04-10T07:17:07.073Z,4.07
2019-04-10T07:19:37.765Z,3.93
2019-04-10T07:22:12.426Z,4.03
2019-04-10T07:24:42.628Z,4.23
2019-04-10T07:27:14.037Z,3.98
2019-04-10T07:29:45.176Z,3.80
2019-04-10T07:32:16.881Z,4.67
2019-04-10T07:34:48.738Z,5.40
2019-04-10T07:37:22.490Z,4.92
2019-04-10T07:39:52.999Z,5.80
2019-04-10T07:42:29.414Z,5.90
2019-04-10T07:44:57.776Z,5.70
2019-04-10T07:47:29.235Z,4.30
2019-04-10T07:50:02.127Z,4.05
2019-04-10T07:52:33.023Z,5.22
2019-04-10T07:55:04.501Z,5.70
2019-04-10T07:57:36.391Z,5.30
2019-04-10T08:00:09.071Z,5.20
2019-04-10T08:02:40.560Z,4.43
2019-04-10T08:05:12.288Z,4.90
2019-04-10T08:07:45.150Z,5.17
2019-04-10T08:10:20.184Z,4.37
2019-04-10T08:12:54.210Z,5.87
2019-04-10T08:15:25.190Z,5.53
2019-04-10T08:17:58.298Z,5.80
2019-04-10T08:20:30.666Z,4.67
2019-04-10T08:23:01.664Z,5.70
2019-04-10T08:25:33.759Z,4.93
2019-04-10T08:28:04.621Z,4.53
2019-04-10T08:30:36.230Z,4.67
2019-04-10T08:33:07.778Z,4.33
2019-04-10T08:35:39.862Z,6.43
2019-04-10T08:38:13.037Z,6.00
2019-04-10T08:40:44.492Z,5.60
2019-04-10T08:43:15.841Z,6.53
2019-04-10T08:45:51.042Z,6.07
2019-04-10T08:48:19.327Z,4.87
2019-04-10T08:50:50.738Z,5.00
2019-04-10T08:53:22.211Z,5.57
2019-04-10T08:55:54.662Z,6.53
2019-04-10T08:58:25.563Z,6.40
2019-04-10T09:00:56.617Z,5.90
2019-04-10T09:03:27.745Z,6.37
2019-04-10T09:05:58.831Z,5.33
2019-04-10T09:08:29.959Z,5.10
2019-04-10T09:11:01.041Z,6.25
2019-04-10T09:13:32.680Z,6.17
2019-04-10T09:16:04.547Z,5.58
2019-04-10T09:18:37.218Z,6.73
2019-04-10T09:21:08.126Z,5.50
2019-04-10T09:23:46.725Z,5.37
2019-04-10T09:26:13.366Z,3.77
2019-04-10T09:28:44.833Z,6.10
2019-04-10T09:31:15.993Z,5.60
2019-04-10T09:33:47.409Z,5.30
2019-04-10T09:36:19.765Z,5.63
2019-04-10T09:38:52.789Z,5.13
2019-04-10T09:41:25.890Z,5.20
2019-04-10T09:43:58.181Z,4.03
2019-04-10T09:46:29.170Z,5.27
2019-04-10T09:49:00.516Z,4.42
2019-04-10T09:51:34.157Z,4.33
2019-04-10T09:54:05.642Z,5.20
2019-04-10T09:56:36.698Z,5.50
2019-04-10T09:59:07.636Z,4.12
2019-04-10T10:01:38.466Z,4.00
2019-04-10T10:04:09.275Z,4.90
2019-04-10T10:06:40.118Z,3.65
2019-04-10T10:09:10.968Z,5.50
2019-04-10T10:11:42.738Z,4.50
2019-04-10T10:14:14.539Z,5.40
2019-04-10T10:16:46.313Z,4.63
2019-04-10T10:19:18.278Z,5.07
2019-04-10T10:21:50.463Z,4.83
2019-04-10T10:24:22.278Z,4.87
2019-04-10T10:26:53.600Z,4.80
2019-04-10T10:29:25.981Z,4.60
2019-04-10T10:31:57.015Z,4.35
2019-04-10T10:34:28.298Z,4.40
2019-04-10T10:37:00.100Z,4.90
2019-04-10T10:39:31.002Z,4.37
2019-04-10T10:42:03.235Z,3.67
2019-04-10T10:44:34.465Z,4.28
2019-04-10T10:47:06.293Z,4.92
2019-04-10T10:49:37.239Z,4.10
2019-04-10T10:52:09.064Z,5.00
2019-04-10T10:54:41.074Z,3.73
2019-04-10T10:57:13.158Z,4.43
2019-04-10T10:59:44.654Z,4.77
2019-04-10T11:02:15.506Z,4.87
2019-04-10T11:04:47.420Z,4.77
2019-04-10T11:07:18.697Z,2.57
2019-04-10T11:09:50.376Z,2.93
2019-04-10T11:12:22.012Z,3.27
2019-04-10T11:14:53.811Z,3.72
2019-04-10T11:17:25.504Z,4.30
2019-04-10T11:19:56.769Z,4.63
2019-04-10T11:22:27.671Z,4.70
2019-04-10T11:24:59.700Z,4.17
2019-04-10T11:27:31.770Z,5.07
2019-04-10T11:30:03.534Z,3.80
2019-04-10T11:32:36.944Z,4.00
2019-04-10T11:35:08.876Z,3.17
2019-04-10T11:37:44.577Z,3.47
2019-04-10T11:40:16.341Z,4.37
2019-04-10T11:42:46.792Z,3.47
2019-04-10T11:45:19.161Z,4.43
2019-04-10T11:47:51.257Z,4.33
2019-04-10T11:50:24.668Z,4.20
2019-04-10T11:52:56.744Z,3.50
2019-04-10T11:55:28.250Z,3.70
2019-04-10T11:58:00.168Z,3.35
2019-04-10T12:03:15.206Z,2.93
2019-04-10T12:05:48.032Z,2.97
2019-04-10T12:08:44.893Z,2.23
2019-04-10T12:11:10.901Z,3.00
2019-04-10T12:13:24.840Z,4.03
2019-04-10T12:15:56.693Z,4.40
2019-04-10T12:18:28.509Z,4.83
2019-04-10T12:20:59.759Z,4.97
2019-04-10T12:23:30.580Z,5.37
2019-04-10T12:26:01.757Z,3.87
2019-04-10T12:28:33.926Z,4.50
2019-04-10T12:31:06.007Z,4.60
2019-04-10T12:33:38.003Z,3.67
2019-04-10T12:36:10.704Z,3.05
2019-04-10T12:38:41.952Z,4.37
2019-04-10T12:41:12.792Z,3.90
2019-04-10T12:43:43.726Z,3.97
2019-04-10T12:46:14.989Z,4.07
2019-04-10T12:48:47.213Z,4.70
2019-04-10T12:51:19.315Z,4.00
2019-04-10T12:53:50.520Z,4.30
2019-04-10T12:56:22.009Z,4.10
2019-04-10T12:58:53.214Z,4.23
2019-04-10T13:01:24.761Z,3.83
2019-04-10T13:03:55.777Z,3.63
2019-04-10T13:06:26.564Z,3.60
2019-04-10T13:09:07.121Z,3.33
2019-04-10T13:11:30.806Z,3.47
2019-04-10T13:14:02.197Z,3.83
2019-04-10T13:16:34.123Z,3.87
2019-04-10T13:19:05.264Z,4.10
2019-04-10T13:21:36.920Z,3.40
2019-04-10T13:24:09.023Z,4.05
2019-04-10T13:26:40.051Z,3.83
2019-04-10T13:29:11.993Z,4.10
2019-04-10T13:31:42.868Z,4.62
2019-04-10T13:34:13.822Z,3.67
2019-04-10T13:36:46.041Z,3.97
2019-04-10T13:39:18.902Z,4.50
2019-04-10T13:41:50.452Z,4.50
2019-04-10T13:44:22.360Z,3.57
2019-04-10T13:46:53.887Z,4.20
2019-04-10T13:49:24.724Z,4.17
2019-04-10T13:51:56.203Z,4.03
2019-04-10T13:54:27.076Z,3.33
2019-04-10T13:56:57.953Z,4.27
2019-04-10T13:59:29.017Z,3.03
2019-04-10T14:02:00.552Z,4.23
2019-04-10T14:04:31.889Z,3.43
2019-04-10T14:07:04.358Z,3.27
2019-04-10T14:09:43.192Z,3.40
2019-04-10T14:12:08.036Z,3.43
2019-04-10T14:14:38.793Z,3.03
2019-04-10T14:17:09.805Z,2.60
2019-04-10T14:19:41.520Z,2.70
2019-04-10T14:22:13.472Z,2.83
2019-04-10T14:24:47.689Z,3.00
2019-04-10T14:27:22.847Z,3.13
2019-04-10T14:29:54.569Z,3.00
2019-04-10T14:32:31.301Z,3.27
2019-04-10T14:35:03.150Z,2.58
2019-04-10T14:37:34.090Z,2.15
2019-04-10T14:40:06.939Z,3.40
2019-04-10T14:42:38.500Z,2.90
2019-04-10T14:45:11.029Z,3.35
2019-04-10T14:47:43.375Z,2.80
2019-04-10T14:50:15.636Z,2.43
2019-04-10T14:52:47.534Z,2.23
2019-04-10T14:55:20.544Z,2.50
2019-04-10T14:57:53.010Z,2.00
2019-04-10T15:00:32.893Z,2.50
2019-04-10T15:03:04.404Z,2.80
2019-04-10T15:05:45.399Z,1.57
2019-04-10T15:08:09.249Z,1.87
2019-04-10T15:10:40.177Z,2.20
2019-04-10T15:13:16.282Z,1.60
2019-04-10T15:15:44.919Z,2.30
2019-04-10T15:18:15.807Z,1.00
2019-04-10T15:20:47.272Z,2.47
2019-04-10T15:23:20.274Z,2.20
2019-04-10T15:25:51.296Z,2.57
2019-04-10T15:28:23.215Z,2.00
2019-04-10T15:30:55.056Z,2.53
2019-04-10T15:33:26.694Z,2.00
2019-04-10T15:35:59.678Z,1.98
2019-04-10T15:38:30.681Z,1.97
2019-04-10T15:41:02.958Z,2.03
2019-04-10T15:43:35.092Z,2.30
2019-04-10T15:46:05.959Z,1.80
2019-04-10T15:48:37.687Z,2.00
2019-04-10T15:51:08.848Z,1.55
2019-04-10T15:53:41.045Z,1.62
2019-04-10T15:56:12.029Z,1.80
2019-04-10T15:58:43.809Z,2.17
2019-04-10T16:01:18.578Z,1.20
2019-04-10T16:03:50.588Z,1.20
2019-04-10T16:06:22.924Z,2.30
2019-04-10T16:08:54.230Z,1.80
2019-04-10T16:11:36.218Z,1.73
2019-04-10T16:14:18.746Z,1.90
2019-04-10T16:16:57.032Z,1.77
2019-04-10T16:19:47.088Z,2.07
2019-04-10T16:22:24.261Z,1.83
2019-04-10T16:24:58.016Z,1.77
2019-04-10T16:27:29.002Z,1.73
2019-04-10T16:30:03.021Z,1.87
2019-04-10T16:32:34.850Z,2.65
2019-04-10T16:35:07.180Z,2.58
2019-04-10T16:37:38.455Z,2.00
2019-04-10T16:40:10.459Z,2.43
2019-04-10T16:42:43.646Z,2.27
2019-04-10T16:45:17.528Z,1.97
2019-04-10T16:47:48.709Z,1.90
2019-04-10T16:50:19.702Z,3.83
2019-04-10T16:52:51.458Z,1.57
2019-04-10T16:55:22.788Z,2.00
2019-04-10T16:57:53.632Z,2.47
2019-04-10T17:00:24.585Z,1.47
2019-04-10T17:02:56.619Z,1.80
2019-04-10T17:05:28.248Z,2.10
2019-04-10T17:08:01.901Z,2.02
2019-04-10T17:10:32.777Z,2.50
2019-04-10T17:13:04.455Z,1.80
2019-04-10T17:15:36.347Z,3.40
2019-04-10T17:18:08.682Z,2.20
2019-04-10T17:20:40.415Z,2.33
2019-04-10T17:23:12.289Z,1.82
2019-04-10T17:25:44.353Z,2.13
2019-04-10T17:28:16.416Z,1.82
2019-04-10T17:30:47.661Z,1.83
2019-04-10T17:33:18.693Z,1.97
2019-04-10T17:35:49.639Z,1.67
2019-04-10T17:38:20.557Z,1.67
2019-04-10T17:40:55.562Z,1.30
2019-04-10T17:43:26.981Z,1.80
2019-04-10T17:45:58.615Z,2.13
2019-04-10T17:48:31.218Z,1.40
2019-04-10T17:51:03.897Z,1.83
2019-04-10T17:53:35.750Z,2.23
2019-04-10T17:56:06.694Z,1.43
2019-04-10T17:58:37.946Z,2.17
2019-04-10T18:01:12.612Z,1.80
2019-04-10T18:03:51.624Z,1.40
2019-04-10T18:06:17.343Z,1.57
2019-04-10T18:08:49.335Z,2.20
2019-04-10T18:11:20.467Z,1.73
2019-04-10T18:13:53.745Z,1.23
2019-04-10T18:16:25.632Z,1.33
2019-04-10T18:18:57.021Z,1.80
2019-04-10T18:21:28.781Z,2.23
2019-04-10T18:24:00.061Z,1.40
2019-04-10T18:26:31.932Z,1.47
2019-04-10T18:29:02.873Z,1.83
2019-04-10T18:31:34.762Z,1.60
2019-04-10T18:34:09.657Z,2.22
2019-04-10T18:36:38.658Z,2.27
2019-04-10T18:39:15.452Z,1.60
2019-04-10T18:41:47.089Z,2.10
2019-04-10T18:44:17.953Z,1.70
2019-04-10T18:46:48.943Z,2.17
2019-04-10T18:49:21.082Z,1.80
2019-04-10T18:51:52.102Z,1.63
2019-04-10T18:54:23.172Z,1.30
2019-04-10T18:56:54.123Z,1.57
2019-04-10T18:59:45.309Z,1.60
2019-04-10T19:02:34.900Z,2.10
2019-04-10T19:05:16.128Z,1.80
2019-04-10T19:07:48.227Z,1.90
2019-04-10T19:10:19.933Z,1.67
2019-04-10T19:12:51.135Z,2.03
2019-04-10T19:15:24.931Z,2.07
2019-04-10T19:17:55.851Z,1.93
2019-04-10T19:20:27.046Z,1.77
2019-04-10T19:22:59.134Z,1.93
2019-04-10T19:25:30.337Z,1.70
2019-04-10T19:28:02.406Z,1.33
2019-04-10T19:30:37.415Z,1.60
2019-04-10T19:33:08.640Z,2.37
2019-04-10T19:35:39.537Z,1.80
2019-04-10T19:38:11.686Z,2.85
2019-04-10T19:40:43.792Z,2.93
2019-04-10T19:43:16.009Z,2.52
2019-04-10T19:45:48.104Z,2.85
2019-04-10T19:48:21.875Z,3.08
2019-04-10T19:50:53.704Z,2.60
2019-04-10T19:53:25.117Z,2.80
2019-04-10T19:55:56.119Z,3.03
2019-04-10T19:58:30.206Z,3.70
2019-04-10T20:01:01.186Z,3.40
2019-04-10T20:03:32.740Z,2.17
2019-04-10T20:06:03.981Z,2.50
2019-04-10T20:08:35.635Z,2.77
2019-04-10T20:11:08.780Z,3.70
2019-04-10T20:13:40.896Z,3.10
2019-04-10T20:16:11.684Z,3.45
2019-04-10T20:18:43.238Z,2.90
2019-04-10T20:21:15.521Z,2.53
2019-04-10T20:23:46.563Z,3.70
2019-04-10T20:26:17.394Z,3.87
2019-04-10T20:28:48.435Z,3.67
2019-04-10T20:31:25.551Z,3.70
2019-04-10T20:33:56.902Z,3.57
2019-04-10T20:36:29.099Z,3.70
2019-04-10T20:39:01.047Z,4.90
2019-04-10T20:41:46.035Z,3.00
2019-04-10T20:44:07.282Z,5.70
2019-04-10T20:46:39.456Z,2.90
2019-04-10T20:49:10.455Z,3.50
2019-04-10T20:51:42.017Z,3.20
2019-04-10T20:54:13.278Z,4.37
2019-04-10T20:56:44.466Z,4.67
2019-04-10T20:59:15.635Z,3.90
2019-04-10T21:01:47.014Z,4.40
2019-04-10T21:04:18.093Z,4.20
2019-04-10T21:06:50.144Z,5.23
2019-04-10T21:09:21.642Z,4.47
2019-04-10T21:12:02.041Z,4.73
2019-04-10T21:14:25.476Z,5.23
2019-04-10T21:16:56.790Z,5.27
2019-04-10T21:19:31.566Z,5.60
2019-04-10T21:22:03.799Z,5.37
2019-04-10T21:24:35.750Z,4.70
2019-04-10T21:27:07.158Z,4.23
2019-04-10T21:29:57.052Z,5.83
2019-04-10T21:32:50.003Z,5.33
2019-04-10T21:35:27.104Z,5.00
2019-04-10T21:37:59.127Z,4.40
2019-04-10T21:40:30.649Z,4.77
2019-04-10T21:43:01.670Z,5.70
2019-04-10T21:45:33.341Z,5.53
2019-04-10T21:48:06.393Z,6.00
2019-04-10T21:50:37.798Z,4.73
2019-04-10T21:53:08.648Z,6.53
2019-04-10T21:55:39.846Z,5.87
2019-04-10T21:58:12.928Z,5.90
2019-04-10T22:01:01.401Z,6.47
2019-04-10T22:03:34.273Z,6.80
2019-04-10T22:06:15.159Z,5.72
2019-04-10T22:08:52.030Z,4.42
2019-04-10T22:11:23.598Z,5.57
2019-04-10T22:13:54.851Z,6.90
2019-04-10T22:16:26.257Z,5.93
2019-04-10T22:18:58.185Z,6.27
2019-04-10T22:21:29.178Z,5.63
2019-04-10T22:24:00.961Z,6.90
2019-04-10T22:26:32.148Z,5.40
2019-04-10T22:29:03.619Z,5.73
2019-04-10T22:31:36.020Z,4.10
2019-04-10T22:34:07.400Z,4.63
2019-04-10T22:36:39.427Z,4.73
2019-04-10T22:39:14.606Z,4.13
2019-04-10T22:41:46.225Z,4.53
2019-04-10T22:44:17.617Z,4.73
2019-04-10T22:46:48.626Z,4.20
2019-04-10T22:49:20.231Z,5.23
2019-04-10T22:51:51.804Z,4.10
2019-04-10T22:54:23.008Z,4.67
2019-04-10T22:56:54.459Z,4.47
2019-04-10T22:59:26.303Z,4.87
2019-04-10T23:02:03.390Z,4.57
2019-04-10T23:04:30.768Z,5.20
2019-04-10T23:07:01.854Z,6.53
2019-04-10T23:09:33.124Z,5.07
2019-04-10T23:12:07.842Z,5.87
2019-04-10T23:14:38.786Z,5.03
2019-04-10T23:17:10.715Z,3.60
2019-04-10T23:19:42.502Z,5.13
2019-04-10T23:22:14.923Z,5.80
2019-04-10T23:24:46.090Z,6.03
2019-04-10T23:27:17.716Z,4.17
2019-04-10T23:29:48.878Z,4.13
2019-04-10T23:32:20.117Z,4.13
2019-04-10T23:34:51.025Z,4.80
2019-04-10T23:37:22.571Z,4.40
2019-04-10T23:39:54.521Z,4.60
2019-04-10T23:42:25.872Z,4.13
2019-04-10T23:44:57.501Z,5.30
2019-04-10T23:47:28.606Z,6.30
2019-04-10T23:49:59.775Z,4.60
2019-04-10T23:52:31.840Z,5.67
2019-04-10T23:55:03.980Z,4.40
2019-04-10T23:57:35.684Z,4.40
